createdAt,value
2017-08-19T00:00:44.423Z,1.30
2017-08-19T00:03:12.805Z,1.37
2017-08-19T00:05:40.293Z,1.47
2017-08-19T00:08:07.821Z,1.30
2017-08-19T00:10:35.333Z,1.23
2017-08-19T00:13:02.844Z,1.10
2017-08-19T00:15:30.396Z,1.50
2017-08-19T00:17:57.894Z,1.30
2017-08-19T00:20:25.408Z,1.40
2017-08-19T00:22:52.919Z,1.30
2017-08-19T00:25:20.433Z,1.50
2017-08-19T00:27:47.949Z,1.30
2017-08-19T00:30:15.492Z,1.50
2017-08-19T00:32:42.995Z,1.97
2017-08-19T00:35:10.486Z,1.40
2017-08-19T00:37:38.009Z,1.60
2017-08-19T00:40:05.495Z,1.33
2017-08-19T00:42:33.000Z,1.50
2017-08-19T00:45:00.616Z,1.90
2017-08-19T00:47:28.142Z,1.80
2017-08-19T00:49:55.658Z,1.80
2017-08-19T00:52:23.148Z,1.20
2017-08-19T00:54:51.423Z,1.80
2017-08-19T00:57:19.688Z,1.50
2017-08-19T00:59:48.001Z,1.70
2017-08-19T01:02:15.550Z,1.57
2017-08-19T01:04:43.082Z,1.70
2017-08-19T01:07:11.383Z,1.60
2017-08-19T01:09:38.937Z,1.60
2017-08-19T01:12:06.437Z,1.40
2017-08-19T01:14:33.958Z,1.60
2017-08-19T01:17:01.509Z,1.90
2017-08-19T01:19:29.076Z,1.67
2017-08-19T01:21:56.633Z,1.50
2017-08-19T01:24:24.129Z,1.47
2017-08-19T01:26:57.685Z,1.90
2017-08-19T01:29:25.180Z,1.90
2017-08-19T01:31:52.736Z,1.83
2017-08-19T01:34:20.256Z,1.73
2017-08-19T01:36:47.792Z,1.37
2017-08-19T01:39:16.085Z,1.60
2017-08-19T01:41:43.643Z,1.40
2017-08-19T01:44:11.148Z,1.33
2017-08-19T01:46:38.642Z,2.17
2017-08-19T01:49:06.930Z,2.60
2017-08-19T01:51:34.427Z,2.90
2017-08-19T01:54:01.956Z,1.63
2017-08-19T01:56:29.473Z,1.50
2017-08-19T01:58:57.076Z,2.00
2017-08-19T02:01:24.625Z,1.60
2017-08-19T02:03:52.229Z,1.80
2017-08-19T02:06:19.745Z,1.60
2017-08-19T02:08:47.256Z,1.70
2017-08-19T02:11:14.764Z,1.77
2017-08-19T02:13:42.508Z,1.80
2017-08-19T02:16:10.780Z,1.90
2017-08-19T02:18:39.060Z,1.73
2017-08-19T02:21:07.345Z,2.00
2017-08-19T02:23:34.920Z,2.03
2017-08-19T02:26:02.404Z,1.60
2017-08-19T02:28:29.907Z,1.60
2017-08-19T02:30:58.202Z,1.83
2017-08-19T02:33:25.744Z,2.00
2017-08-19T02:35:53.996Z,2.10
2017-08-19T02:38:21.535Z,1.80
2017-08-19T02:40:49.020Z,2.30
2017-08-19T02:43:17.293Z,1.70
2017-08-19T02:45:45.615Z,2.40
2017-08-19T02:48:13.188Z,2.07
2017-08-19T02:50:40.723Z,2.30
2017-08-19T02:53:08.270Z,2.67
2017-08-19T02:55:35.820Z,2.60
2017-08-19T02:58:03.316Z,2.80
2017-08-19T03:00:30.830Z,2.40
2017-08-19T03:02:59.213Z,3.00
2017-08-19T03:05:26.726Z,3.47
2017-08-19T03:07:54.360Z,2.80
2017-08-19T03:10:21.896Z,2.60
2017-08-19T03:12:49.403Z,2.43
2017-08-19T03:15:16.911Z,2.63
2017-08-19T03:17:44.459Z,2.27
2017-08-19T03:20:12.716Z,1.50
2017-08-19T03:22:40.971Z,1.43
2017-08-19T03:25:08.480Z,1.70
2017-08-19T03:27:36.028Z,1.30
2017-08-19T03:30:03.564Z,1.40
2017-08-19T03:32:31.836Z,1.77
2017-08-19T03:34:59.416Z,1.57
2017-08-19T03:37:27.673Z,1.80
2017-08-19T03:39:55.943Z,1.40
2017-08-19T03:42:23.536Z,1.33
2017-08-19T03:44:51.093Z,1.40
2017-08-19T03:47:18.609Z,1.43
2017-08-19T03:49:46.104Z,1.83
2017-08-19T03:52:13.625Z,1.67
2017-08-19T03:54:41.214Z,1.60
2017-08-19T03:57:09.460Z,1.50
2017-08-19T03:59:36.968Z,1.40
2017-08-19T04:02:04.507Z,1.30
2017-08-19T04:04:32.083Z,1.60
2017-08-19T04:06:59.595Z,1.93
2017-08-19T04:09:27.076Z,1.80
2017-08-19T04:11:55.375Z,1.23
2017-08-19T04:14:22.866Z,1.30
2017-08-19T04:16:50.475Z,1.60
2017-08-19T04:19:17.957Z,1.80
2017-08-19T04:21:45.494Z,1.40
2017-08-19T04:24:13.031Z,1.70
2017-08-19T04:26:41.349Z,1.90
2017-08-19T04:29:08.832Z,1.57
2017-08-19T04:31:36.439Z,1.80
2017-08-19T04:34:04.028Z,1.57
2017-08-19T04:36:31.532Z,1.50
2017-08-19T04:38:59.788Z,1.53
2017-08-19T04:41:27.312Z,1.17
2017-08-19T04:43:54.805Z,1.73
2017-08-19T04:46:22.316Z,1.80
2017-08-19T04:48:49.828Z,1.50
2017-08-19T04:51:17.408Z,1.70
2017-08-19T04:53:45.704Z,1.90
2017-08-19T04:56:13.253Z,1.80
2017-08-19T04:58:40.764Z,1.70
2017-08-19T05:01:08.368Z,2.13
2017-08-19T05:03:35.866Z,2.27
2017-08-19T05:06:03.385Z,2.10
2017-08-19T05:08:30.937Z,1.60
2017-08-19T05:10:59.216Z,1.90
2017-08-19T05:13:26.785Z,1.90
2017-08-19T05:15:54.305Z,1.67
2017-08-19T05:18:22.568Z,1.60
2017-08-19T05:20:50.074Z,2.17
2017-08-19T05:23:17.583Z,2.00
2017-08-19T05:28:24.927Z,1.70
2017-08-19T05:30:52.419Z,1.80
2017-08-19T05:33:20.052Z,1.83
2017-08-19T05:35:47.549Z,1.73
2017-08-19T05:38:15.040Z,2.03
2017-08-19T05:40:42.568Z,1.53
2017-08-19T05:43:10.091Z,1.70
2017-08-19T05:45:37.600Z,2.00
2017-08-19T05:48:05.181Z,1.73
2017-08-19T05:50:32.769Z,1.90
2017-08-19T05:53:00.300Z,1.70
2017-08-19T05:55:27.860Z,1.67
2017-08-19T05:57:55.373Z,2.10
2017-08-19T06:00:22.880Z,1.57
2017-08-19T06:02:50.444Z,1.70
2017-08-19T06:05:17.993Z,2.03
2017-08-19T06:07:45.482Z,2.20
2017-08-19T06:10:12.998Z,2.00
2017-08-19T06:12:41.279Z,2.17
2017-08-19T06:15:09.683Z,1.87
2017-08-19T06:17:37.218Z,1.90
2017-08-19T06:20:04.781Z,2.40
2017-08-19T06:22:32.269Z,1.93
2017-08-19T06:24:59.769Z,1.90
2017-08-19T06:27:28.043Z,2.23
2017-08-19T06:29:56.298Z,1.73
2017-08-19T06:32:23.865Z,2.90
2017-08-19T06:34:51.352Z,2.40
2017-08-19T06:37:19.657Z,3.53
2017-08-19T06:39:47.164Z,2.87
2017-08-19T06:42:14.673Z,3.20
2017-08-19T06:44:42.205Z,2.27
2017-08-19T06:47:09.786Z,2.03
2017-08-19T06:49:37.276Z,2.50
2017-08-19T06:52:04.828Z,2.50
2017-08-19T06:54:32.336Z,2.40
2017-08-19T06:56:59.942Z,2.57
2017-08-19T06:59:27.436Z,3.03
2017-08-19T07:01:54.977Z,2.43
2017-08-19T07:04:22.583Z,2.60
2017-08-19T07:06:50.140Z,2.33
2017-08-19T07:09:17.675Z,2.30
2017-08-19T07:11:45.938Z,2.27
2017-08-19T07:14:14.225Z,2.50
2017-08-19T07:16:41.733Z,2.63
2017-08-19T07:19:09.261Z,2.20
2017-08-19T07:21:36.764Z,2.33
2017-08-19T07:24:04.264Z,2.20
2017-08-19T07:26:31.789Z,2.50
2017-08-19T07:29:00.069Z,2.30
2017-08-19T07:31:27.610Z,2.17
2017-08-19T07:33:55.130Z,2.10
2017-08-19T07:36:22.625Z,2.13
2017-08-19T07:38:50.232Z,3.47
2017-08-19T07:41:17.727Z,4.10
2017-08-19T07:43:45.261Z,2.80
2017-08-19T07:46:12.764Z,3.00
2017-08-19T07:48:40.273Z,2.40
2017-08-19T07:51:07.783Z,1.90
2017-08-19T07:53:35.273Z,1.60
2017-08-19T07:56:02.883Z,2.30
2017-08-19T07:58:30.485Z,2.30
2017-08-19T08:00:58.779Z,2.17
2017-08-19T08:03:26.323Z,2.30
2017-08-19T08:05:53.807Z,1.87
2017-08-19T08:08:21.351Z,1.90
2017-08-19T08:10:48.872Z,2.33
2017-08-19T08:13:17.159Z,1.87
2017-08-19T08:15:45.465Z,1.80
2017-08-19T08:18:12.966Z,1.90
2017-08-19T08:20:40.494Z,1.80
2017-08-19T08:23:07.980Z,1.67
2017-08-19T08:25:35.470Z,2.13
2017-08-19T08:28:02.979Z,2.10
2017-08-19T08:30:30.473Z,2.17
2017-08-19T08:32:58.764Z,2.00
2017-08-19T08:35:26.260Z,2.17
2017-08-19T08:37:53.750Z,2.20
2017-08-19T08:40:21.278Z,2.27
2017-08-19T08:42:48.805Z,1.70
2017-08-19T08:45:16.382Z,1.67
2017-08-19T08:47:43.891Z,2.07
2017-08-19T08:50:12.189Z,1.70
2017-08-19T08:52:39.753Z,1.73
2017-08-19T08:55:07.249Z,2.33
2017-08-19T08:57:34.791Z,2.17
2017-08-19T09:00:02.332Z,2.00
2017-08-19T09:02:29.845Z,1.80
2017-08-19T09:04:57.340Z,1.63
2017-08-19T09:07:24.888Z,1.67
2017-08-19T09:09:53.141Z,1.53
2017-08-19T09:12:20.653Z,1.80
2017-08-19T09:14:48.181Z,1.40
2017-08-19T09:17:15.672Z,2.07
2017-08-19T09:19:43.218Z,1.70
2017-08-19T09:22:10.720Z,1.53
2017-08-19T09:24:38.328Z,1.80
2017-08-19T09:27:05.835Z,1.67
2017-08-19T09:29:33.325Z,1.63
2017-08-19T09:32:00.853Z,1.50
2017-08-19T09:34:28.366Z,1.90
2017-08-19T09:36:55.911Z,1.87
2017-08-19T09:39:23.417Z,1.57
2017-08-19T09:41:50.937Z,1.20
2017-08-19T09:44:18.492Z,1.57
2017-08-19T09:46:46.012Z,1.33
2017-08-19T09:49:14.408Z,1.67
2017-08-19T09:51:41.940Z,1.40
2017-08-19T09:54:09.452Z,1.40
2017-08-19T09:56:37.107Z,1.57
2017-08-19T09:59:04.607Z,1.50
2017-08-19T10:01:32.216Z,1.63
2017-08-19T10:03:59.742Z,1.37
2017-08-19T10:06:28.038Z,1.70
2017-08-19T10:09:07.481Z,1.40
2017-08-19T10:11:35.048Z,1.43
2017-08-19T10:14:02.561Z,1.73
2017-08-19T10:16:30.084Z,1.77
2017-08-19T10:18:57.589Z,1.70
2017-08-19T10:21:25.877Z,1.80
2017-08-19T10:23:53.462Z,1.40
2017-08-19T10:26:20.968Z,1.97
2017-08-19T10:28:48.576Z,2.07
2017-08-19T10:31:16.095Z,1.60
2017-08-19T10:33:44.395Z,1.90
2017-08-19T10:36:11.923Z,1.60
2017-08-19T10:38:40.188Z,1.40
2017-08-19T10:41:07.711Z,1.60
2017-08-19T10:43:35.232Z,1.57
2017-08-19T10:46:03.558Z,1.57
2017-08-19T10:48:31.066Z,1.33
2017-08-19T10:50:58.557Z,1.30
2017-08-19T10:53:26.077Z,1.30
2017-08-19T10:55:54.329Z,1.77
2017-08-19T10:58:21.935Z,1.80
2017-08-19T11:00:49.446Z,2.37
2017-08-19T11:03:16.962Z,1.60
2017-08-19T11:05:44.492Z,1.40
2017-08-19T11:08:11.992Z,1.60
2017-08-19T11:10:39.522Z,1.63
2017-08-19T11:13:07.188Z,1.40
2017-08-19T11:15:34.705Z,1.50
2017-08-19T11:18:03.014Z,1.40
2017-08-19T11:20:30.578Z,1.50
2017-08-19T11:22:58.116Z,2.10
2017-08-19T11:25:25.619Z,1.50
2017-08-19T11:27:53.116Z,1.67
2017-08-19T11:30:21.421Z,1.60
2017-08-19T11:32:48.985Z,1.90
2017-08-19T11:35:16.500Z,1.30
2017-08-19T11:37:44.016Z,1.60
2017-08-19T11:40:11.519Z,1.40
2017-08-19T11:42:39.801Z,2.00
2017-08-19T11:45:08.064Z,1.70
2017-08-19T11:47:35.577Z,1.80
2017-08-19T11:50:03.077Z,1.40
2017-08-19T11:52:30.605Z,1.40
2017-08-19T11:54:58.100Z,2.00
2017-08-19T11:57:26.364Z,1.40
2017-08-19T11:59:53.893Z,1.50
2017-08-19T12:02:21.391Z,2.33
2017-08-19T12:04:49.652Z,1.63
2017-08-19T12:07:17.192Z,1.70
2017-08-19T12:09:44.772Z,1.37
2017-08-19T12:12:12.274Z,1.80
2017-08-19T12:14:40.771Z,1.70
2017-08-19T12:17:08.296Z,1.20
2017-08-19T12:19:35.797Z,1.53
2017-08-19T12:22:03.326Z,1.90
2017-08-19T12:24:30.849Z,2.00
2017-08-19T12:26:59.150Z,1.60
2017-08-19T12:29:26.642Z,1.37
2017-08-19T12:31:54.189Z,1.60
2017-08-19T12:34:21.720Z,1.60
2017-08-19T12:36:49.224Z,1.80
2017-08-19T12:39:16.789Z,1.67
2017-08-19T12:41:44.294Z,1.83
2017-08-19T12:44:11.798Z,1.47
2017-08-19T12:46:39.353Z,1.50
2017-08-19T12:49:06.876Z,1.70
2017-08-19T12:51:34.400Z,1.27
2017-08-19T12:54:02.656Z,1.87
2017-08-19T12:56:30.144Z,1.87
2017-08-19T12:58:57.725Z,2.00
2017-08-19T13:01:25.264Z,1.80
2017-08-19T13:03:52.753Z,1.27
2017-08-19T13:06:20.278Z,1.93
2017-08-19T13:08:47.778Z,1.63
2017-08-19T13:11:15.292Z,2.00
2017-08-19T13:13:42.861Z,1.77
2017-08-19T13:16:10.348Z,1.70
2017-08-19T13:18:37.866Z,2.10
2017-08-19T13:21:05.374Z,1.50
2017-08-19T13:23:33.426Z,1.63
2017-08-19T13:26:00.925Z,1.90
2017-08-19T13:28:28.430Z,1.67
2017-08-19T13:30:55.949Z,1.53
2017-08-19T13:33:24.266Z,1.80
2017-08-19T13:35:51.804Z,1.70
2017-08-19T13:38:19.312Z,1.60
2017-08-19T13:40:46.857Z,1.60
2017-08-19T13:43:14.364Z,1.50
2017-08-19T13:45:42.627Z,1.30
2017-08-19T13:48:10.937Z,1.37
2017-08-19T13:50:38.454Z,1.50
2017-08-19T13:53:06.767Z,1.67
2017-08-19T13:55:34.287Z,1.80
2017-08-19T13:58:01.873Z,1.50
2017-08-19T14:00:29.395Z,1.30
2017-08-19T14:02:56.895Z,1.80
2017-08-19T14:05:24.437Z,1.37
2017-08-19T14:07:52.729Z,1.50
2017-08-19T14:10:20.226Z,1.90
2017-08-19T14:12:47.738Z,1.70
2017-08-19T14:15:15.228Z,1.83
2017-08-19T14:17:42.732Z,1.60
2017-08-19T14:20:11.020Z,1.40
2017-08-19T14:22:39.312Z,1.57
2017-08-19T14:25:06.823Z,1.60
2017-08-19T14:27:34.353Z,1.60
2017-08-19T14:30:01.873Z,1.87
2017-08-19T14:32:29.369Z,1.70
2017-08-19T14:34:56.884Z,1.43
2017-08-19T14:37:25.181Z,2.00
2017-08-19T14:39:52.679Z,1.87
2017-08-19T14:42:20.167Z,1.50
2017-08-19T14:44:48.574Z,1.23
2017-08-19T14:47:16.075Z,1.47
2017-08-19T14:49:43.571Z,1.60
2017-08-19T14:52:11.117Z,1.53
2017-08-19T14:54:39.396Z,1.73
2017-08-19T14:57:07.704Z,1.50
2017-08-19T14:59:35.218Z,1.40
2017-08-19T15:02:03.516Z,1.80
2017-08-19T15:04:31.028Z,1.40
2017-08-19T15:06:58.519Z,2.13
2017-08-19T15:09:26.829Z,1.23
2017-08-19T15:11:54.337Z,2.10
2017-08-19T15:14:21.852Z,1.40
2017-08-19T15:16:49.489Z,1.50
2017-08-19T15:19:17.068Z,2.20
2017-08-19T15:21:44.568Z,1.37
2017-08-19T15:24:12.092Z,1.40
2017-08-19T15:26:39.576Z,1.43
2017-08-19T15:29:07.108Z,1.53
2017-08-19T15:31:34.612Z,1.30
2017-08-19T15:34:02.195Z,1.13
2017-08-19T15:36:29.724Z,1.30
2017-08-19T15:38:57.972Z,1.27
2017-08-19T15:41:25.508Z,1.83
2017-08-19T15:43:53.017Z,1.60
2017-08-19T15:46:21.289Z,1.50
2017-08-19T15:48:49.624Z,1.83
2017-08-19T15:51:17.121Z,1.60
2017-08-19T15:53:45.422Z,2.43
2017-08-19T15:56:12.980Z,1.67
2017-08-19T15:58:40.541Z,1.97
2017-08-19T16:01:08.109Z,2.20
2017-08-19T16:03:35.619Z,1.67
2017-08-19T16:06:03.204Z,2.10
2017-08-19T16:08:30.704Z,2.10
2017-08-19T16:10:58.210Z,1.60
2017-08-19T16:13:26.604Z,2.43
2017-08-19T16:15:54.108Z,1.70
2017-08-19T16:18:21.637Z,1.57
2017-08-19T16:20:49.300Z,1.80
2017-08-19T16:23:16.792Z,1.80
2017-08-19T16:25:44.316Z,1.93
2017-08-19T16:28:11.820Z,1.23
2017-08-19T16:30:39.424Z,1.23
2017-08-19T16:33:06.972Z,1.43
2017-08-19T16:35:34.521Z,1.40
2017-08-19T16:38:02.016Z,1.83
2017-08-19T16:40:29.496Z,1.60
2017-08-19T16:42:57.004Z,1.40
2017-08-19T16:45:24.522Z,1.50
2017-08-19T16:47:52.126Z,1.70
2017-08-19T16:50:19.716Z,1.20
2017-08-19T16:52:47.213Z,1.13
2017-08-19T16:55:15.497Z,1.13
2017-08-19T16:57:43.761Z,1.77
2017-08-19T17:00:12.053Z,1.50
2017-08-19T17:02:39.572Z,1.40
2017-08-19T17:05:07.056Z,1.20
2017-08-19T17:07:35.360Z,1.30
2017-08-19T17:10:02.904Z,1.30
2017-08-19T17:12:30.409Z,1.20
2017-08-19T17:14:57.928Z,1.20
2017-08-19T17:17:25.488Z,1.50
2017-08-19T17:19:53.021Z,1.10
2017-08-19T17:22:21.303Z,1.40
2017-08-19T17:24:49.595Z,1.27
2017-08-19T17:27:17.137Z,1.20
2017-08-19T17:29:44.689Z,1.20
2017-08-19T17:32:12.962Z,1.43
2017-08-19T17:34:41.256Z,1.13
2017-08-19T17:37:08.780Z,1.27
2017-08-19T17:39:36.391Z,1.30
2017-08-19T17:42:03.936Z,1.20
2017-08-19T17:44:31.473Z,1.20
2017-08-19T17:46:59.774Z,1.73
2017-08-19T17:49:27.306Z,1.13
2017-08-19T17:51:55.605Z,1.13
2017-08-19T17:54:23.108Z,0.90
2017-08-19T17:56:50.716Z,1.23
2017-08-19T17:59:18.278Z,1.10
2017-08-19T18:01:45.813Z,1.27
2017-08-19T18:04:14.090Z,1.40
2017-08-19T18:06:42.360Z,1.40
2017-08-19T18:09:10.657Z,1.10
2017-08-19T18:11:38.148Z,1.13
2017-08-19T18:14:05.691Z,1.47
2017-08-19T18:16:33.194Z,1.30
2017-08-19T18:19:00.697Z,1.47
2017-08-19T18:21:28.225Z,1.57
2017-08-19T18:23:56.492Z,1.87
2017-08-19T18:26:24.786Z,1.60
2017-08-19T18:28:52.378Z,1.93
2017-08-19T18:31:19.944Z,1.77
2017-08-19T18:33:47.471Z,2.70
2017-08-19T18:36:15.040Z,2.63
2017-08-19T18:38:42.540Z,2.00
2017-08-19T18:41:10.105Z,2.03
2017-08-19T18:43:37.612Z,1.90
2017-08-19T18:46:05.178Z,2.27
2017-08-19T18:48:32.674Z,2.30
2017-08-19T18:51:00.188Z,2.77
2017-08-19T18:53:27.678Z,2.53
2017-08-19T18:55:55.305Z,2.57
2017-08-19T18:58:22.856Z,2.67
2017-08-19T19:00:50.389Z,4.13
2017-08-19T19:03:18.665Z,2.60
2017-08-19T19:05:46.924Z,2.60
2017-08-19T19:08:14.440Z,2.10
2017-08-19T19:10:41.936Z,3.20
2017-08-19T19:13:09.463Z,3.23
2017-08-19T19:15:36.989Z,2.67
2017-08-19T19:18:04.473Z,2.17
2017-08-19T19:20:31.988Z,2.47
2017-08-19T19:23:00.242Z,2.10
2017-08-19T19:25:27.857Z,2.60
2017-08-19T19:27:55.378Z,2.50
2017-08-19T19:30:23.649Z,1.73
2017-08-19T19:32:51.958Z,1.80
2017-08-19T19:35:19.468Z,1.87
2017-08-19T19:37:47.071Z,2.63
2017-08-19T19:40:14.600Z,2.40
2017-08-19T19:42:42.871Z,3.40
2017-08-19T19:45:11.162Z,4.50
2017-08-19T19:47:38.682Z,4.37
2017-08-19T19:50:06.179Z,3.63
2017-08-19T19:52:33.738Z,9.20
2017-08-19T19:55:01.236Z,5.60
2017-08-19T19:57:28.745Z,16.90
2017-08-19T19:59:57.025Z,9.00
2017-08-19T20:02:24.533Z,2.80
2017-08-19T20:04:52.056Z,2.43
2017-08-19T20:07:19.605Z,2.50
2017-08-19T20:09:47.159Z,2.80
2017-08-19T20:12:14.696Z,2.17
2017-08-19T20:14:42.269Z,2.50
2017-08-19T20:17:09.876Z,3.60
2017-08-19T20:19:37.527Z,4.60
2017-08-19T20:22:05.017Z,4.80
2017-08-19T20:24:32.540Z,4.60
2017-08-19T20:27:00.039Z,5.40
2017-08-19T20:29:27.543Z,4.77
2017-08-19T20:31:55.082Z,5.07
2017-08-19T20:34:22.584Z,5.03
2017-08-19T20:36:50.118Z,4.60
2017-08-19T20:39:17.613Z,3.77
2017-08-19T20:41:45.111Z,3.50
2017-08-19T20:44:12.648Z,3.30
2017-08-19T20:46:40.928Z,3.50
2017-08-19T20:49:09.185Z,3.63
2017-08-19T20:51:36.717Z,2.87
2017-08-19T20:54:04.213Z,2.50
2017-08-19T20:56:32.509Z,2.90
2017-08-19T20:59:00.012Z,3.23
2017-08-19T21:01:27.552Z,3.30
2017-08-19T21:03:55.040Z,3.00
2017-08-19T21:06:22.561Z,3.23
2017-08-19T21:08:50.091Z,2.37
2017-08-19T21:11:18.394Z,2.70
2017-08-19T21:13:45.925Z,3.00
2017-08-19T21:16:14.180Z,3.47
2017-08-19T21:18:42.453Z,2.93
2017-08-19T21:21:09.975Z,7.83
2017-08-19T21:23:37.483Z,4.30
2017-08-19T21:26:05.772Z,4.60
2017-08-19T21:28:33.273Z,5.33
2017-08-19T21:31:00.760Z,4.40
2017-08-19T21:33:29.046Z,5.10
2017-08-19T21:35:57.325Z,4.70
2017-08-19T21:38:25.616Z,4.63
2017-08-19T21:40:53.108Z,4.13
2017-08-19T21:43:20.638Z,3.47
2017-08-19T21:45:48.168Z,4.20
2017-08-19T21:48:16.421Z,3.43
2017-08-19T21:50:43.928Z,4.37
2017-08-19T21:53:11.471Z,4.00
2017-08-19T21:55:39.000Z,3.87
2017-08-19T21:58:07.265Z,4.17
2017-08-19T22:00:34.752Z,4.80
2017-08-19T22:03:03.060Z,4.70
2017-08-19T22:05:30.560Z,4.30
2017-08-19T22:07:58.081Z,4.60
2017-08-19T22:10:25.600Z,4.17
2017-08-19T22:12:53.894Z,4.57
2017-08-19T22:15:21.384Z,3.80
2017-08-19T22:17:48.893Z,4.53
2017-08-19T22:20:17.165Z,4.73
2017-08-19T22:22:45.450Z,7.80
2017-08-19T22:25:13.017Z,7.97
2017-08-19T22:27:40.533Z,6.90
2017-08-19T22:30:08.022Z,4.40
2017-08-19T22:32:35.553Z,6.83
2017-08-19T22:35:03.077Z,5.63
2017-08-19T22:37:30.568Z,5.53
2017-08-19T22:39:58.104Z,5.53
2017-08-19T22:42:25.613Z,5.83
2017-08-19T22:44:53.108Z,5.80
2017-08-19T22:47:20.637Z,5.10
2017-08-19T22:49:48.201Z,5.10
2017-08-19T22:52:15.714Z,5.30
2017-08-19T22:54:43.206Z,5.27
2017-08-19T22:57:10.727Z,5.03
2017-08-19T22:59:38.241Z,5.07
2017-08-19T23:02:05.744Z,5.07
2017-08-19T23:04:33.273Z,5.03
2017-08-19T23:07:00.784Z,4.50
2017-08-19T23:09:28.281Z,4.40
2017-08-19T23:11:55.884Z,3.53
2017-08-19T23:14:24.147Z,3.70
2017-08-19T23:16:51.634Z,4.17
2017-08-19T23:19:19.144Z,3.90
2017-08-19T23:21:46.633Z,3.03
2017-08-19T23:24:14.912Z,3.30
2017-08-19T23:26:43.200Z,2.90
2017-08-19T23:29:10.691Z,2.97
2017-08-19T23:31:38.312Z,3.00
2017-08-19T23:34:05.808Z,3.70
2017-08-19T23:36:33.324Z,3.23
2017-08-19T23:39:01.578Z,3.10
2017-08-19T23:41:29.180Z,2.73
2017-08-19T23:43:56.680Z,2.77
2017-08-19T23:46:24.168Z,2.50
2017-08-19T23:48:52.564Z,3.30
2017-08-19T23:51:20.093Z,3.00
2017-08-19T23:53:48.409Z,2.60
2017-08-19T23:56:15.927Z,2.87
2017-08-19T23:58:44.210Z,2.80
